Time;durP1;ratioP1;P1;durP2;ratioP2;P2;SDS_P1;SDS_P2;PMS_P1;PMS_P2;Temp;Humidity;BMP_temperature;BMP_pressure;BME280_temperature;BME280_humidity;BME280_pressure;Samples;Min_cycle;Max_cycle;Signal;HPM_P1;HPM_P2
2021/11/25 00:03:51;;;;;;;22.20;18.00;;;5.70;99.90;;;;;;10513530;28;20208;-83
2021/11/25 00:08:53;;;;;;;18.87;16.87;;;5.60;99.90;;;;;;10529180;28;20216;-84
2021/11/25 00:13:57;;;;;;;20.53;18.13;;;5.60;99.90;;;;;;10493126;28;20203;-83
2021/11/25 00:18:59;;;;;;;21.20;17.67;;;5.60;99.90;;;;;;10505094;28;20229;-84
2021/11/25 00:24:03;;;;;;;20.33;17.70;;;5.60;99.90;;;;;;10492989;28;20238;-83
2021/11/25 00:29:08;;;;;;;20.23;17.70;;;5.60;99.90;;;;;;10494192;28;20575;-81
2021/11/25 00:34:10;;;;;;;19.83;17.27;;;5.60;99.90;;;;;;10534353;28;20218;-81
2021/11/25 00:39:12;;;;;;;20.27;17.43;;;5.70;99.90;;;;;;10551927;28;20223;-81
2021/11/25 00:44:16;;;;;;;23.53;18.77;;;5.70;99.90;;;;;;10526409;28;20687;-81
2021/11/25 00:49:18;;;;;;;20.63;17.50;;;5.70;99.90;;;;;;10554214;28;20238;-82
2021/11/25 00:54:23;;;;;;;19.50;16.63;;;5.70;99.90;;;;;;10546458;28;20208;-81
2021/11/25 00:59:28;;;;;;;22.20;18.47;;;5.80;99.90;;;;;;10529866;28;20242;-81
2021/11/25 01:04:31;;;;;;;23.07;18.80;;;5.70;99.90;;;;;;10532738;28;20203;-82
2021/11/25 01:09:34;;;;;;;25.63;18.93;;;5.80;99.90;;;;;;10533464;28;20635;-83
2021/11/25 01:14:43;;;;;;;20.20;17.47;;;5.70;99.90;;;;;;10530546;28;20239;-84
2021/11/25 01:19:48;;;;;;;21.50;18.27;;;5.70;99.90;;;;;;10514051;28;20239;-84
2021/11/25 01:24:50;;;;;;;22.40;18.53;;;5.80;99.90;;;;;;10519767;28;20291;-84
2021/11/25 01:29:56;;;;;;;19.73;17.30;;;5.80;99.90;;;;;;10509531;28;20258;-83
2021/11/25 01:35:04;;;;;;;21.67;17.17;;;5.90;99.90;;;;;;10520941;28;20659;-83
2021/11/25 01:40:12;;;;;;;21.07;17.77;;;5.90;99.90;;;;;;10531029;28;20703;-82
2021/11/25 01:45:21;;;;;;;23.53;18.80;;;5.80;99.90;;;;;;10517697;28;20208;-82
2021/11/25 01:50:28;;;;;;;20.73;17.73;;;5.80;99.90;;;;;;10523329;28;20288;-82
2021/11/25 01:55:30;;;;;;;20.57;18.00;;;5.80;99.90;;;;;;10529956;28;20719;-84
2021/11/25 02:00:42;;;;;;;21.17;18.83;;;5.80;99.90;;;;;;10506714;28;20235;-81
2021/11/25 02:05:47;;;;;;;23.03;18.20;;;5.90;99.90;;;;;;10533386;28;20430;-82
2021/11/25 02:10:56;;;;;;;22.30;18.43;;;5.90;99.90;;;;;;10515216;28;20224;-81
2021/11/25 02:16:00;;;;;;;21.33;18.93;;;5.90;99.90;;;;;;10529222;28;20679;-84
2021/11/25 02:21:04;;;;;;;23.00;19.20;;;5.80;99.90;;;;;;10511588;28;20299;-82
2021/11/25 02:26:06;;;;;;;25.27;20.40;;;5.80;99.90;;;;;;10534239;28;20206;-84
2021/11/25 02:31:09;;;;;;;25.50;21.47;;;5.80;99.90;;;;;;10545962;28;20215;-84
2021/11/25 02:36:13;;;;;;;24.03;21.20;;;5.70;99.90;;;;;;10530355;28;20320;-81
2021/11/25 02:41:19;;;;;;;24.67;20.30;;;5.70;99.90;;;;;;10535486;28;20227;-82
2021/11/25 02:46:23;;;;;;;24.23;20.30;;;5.70;99.90;;;;;;10516869;28;20272;-84
2021/11/25 02:51:32;;;;;;;23.80;20.23;;;5.70;99.90;;;;;;10515652;28;20756;-83
2021/11/25 02:56:37;;;;;;;25.87;20.90;;;5.80;99.90;;;;;;10512681;28;20238;-81
2021/11/25 03:01:42;;;;;;;23.33;20.20;;;5.80;99.90;;;;;;10547434;28;20242;-84
2021/11/25 03:06:47;;;;;;;24.40;21.47;;;5.80;99.90;;;;;;10507628;28;20211;-82
2021/11/25 03:11:53;;;;;;;24.43;21.53;;;5.80;99.90;;;;;;10538716;28;20219;-81
2021/11/25 03:16:58;;;;;;;21.90;19.50;;;5.90;99.90;;;;;;10543510;28;20216;-81
2021/11/25 03:22:01;;;;;;;22.87;20.47;;;5.80;99.90;;;;;;10547319;28;20757;-82
2021/11/25 03:27:04;;;;;;;24.00;20.97;;;5.80;99.90;;;;;;10570067;28;20241;-82
2021/11/25 03:32:07;;;;;;;23.50;20.33;;;5.70;99.90;;;;;;10517740;28;20216;-82
2021/11/25 03:37:10;;;;;;;23.20;20.20;;;5.70;99.90;;;;;;10520951;28;20234;-82
2021/11/25 03:42:12;;;;;;;23.10;20.67;;;5.80;99.90;;;;;;10560854;28;20303;-81
2021/11/25 03:47:17;;;;;;;25.00;21.50;;;5.70;99.90;;;;;;10545317;28;20223;-84
2021/11/25 03:52:24;;;;;;;22.30;19.90;;;5.80;99.90;;;;;;10524246;28;20296;-82
2021/11/25 03:57:26;;;;;;;22.70;20.20;;;5.80;99.90;;;;;;10546599;28;20204;-82
2021/11/25 04:02:28;;;;;;;26.07;22.63;;;5.80;99.90;;;;;;10527860;28;20703;-82
2021/11/25 04:07:32;;;;;;;23.67;21.13;;;5.80;99.90;;;;;;10527804;28;20204;-84
2021/11/25 04:12:35;;;;;;;23.53;20.40;;;5.90;99.90;;;;;;10510943;28;20208;-81
2021/11/25 04:17:38;;;;;;;23.43;20.93;;;5.80;99.90;;;;;;10525482;28;20552;-83
2021/11/25 04:22:45;;;;;;;25.07;20.67;;;5.80;99.50;;;;;;10527362;28;20234;-82
2021/11/25 04:27:50;;;;;;;23.77;21.07;;;5.70;99.90;;;;;;10528259;28;20211;-81
2021/11/25 04:38:21;;;;;;;23.40;20.23;;;5.70;99.90;;;;;;10526385;28;20253;-81
2021/11/25 04:43:24;;;;;;;20.17;18.07;;;5.70;99.90;;;;;;10557927;28;20212;-84
2021/11/25 04:48:28;;;;;;;24.40;20.93;;;5.80;99.90;;;;;;10526364;28;20283;-84
2021/11/25 04:53:32;;;;;;;24.07;20.93;;;5.80;99.80;;;;;;10530412;28;20694;-84
2021/11/25 04:58:34;;;;;;;26.73;21.37;;;5.70;99.00;;;;;;10509673;28;20687;-83
2021/11/25 05:03:36;;;;;;;24.60;20.80;;;5.70;99.40;;;;;;10517081;28;20766;-81
2021/11/25 05:08:40;;;;;;;23.13;20.50;;;5.60;99.90;;;;;;10527592;28;20235;-82
2021/11/25 05:13:42;;;;;;;24.40;20.30;;;5.60;99.90;;;;;;10547323;28;20231;-82
2021/11/25 05:18:44;;;;;;;25.70;21.73;;;5.60;99.90;;;;;;10532130;28;20280;-82
2021/11/25 05:23:48;;;;;;;24.00;20.93;;;5.70;99.90;;;;;;10532134;28;20338;-84
2021/11/25 05:28:50;;;;;;;21.33;19.10;;;5.60;99.70;;;;;;10546795;28;20610;-82
2021/11/25 05:33:52;;;;;;;23.30;19.57;;;5.50;99.90;;;;;;10553142;28;20200;-82
2021/11/25 05:38:56;;;;;;;22.53;19.90;;;5.50;99.90;;;;;;10522219;28;20223;-83
2021/11/25 05:43:58;;;;;;;24.87;21.70;;;5.50;99.90;;;;;;10526573;28;20239;-81
2021/11/25 05:49:00;;;;;;;23.53;20.90;;;5.50;99.90;;;;;;10509888;28;20231;-81
2021/11/25 05:54:04;;;;;;;24.90;20.17;;;5.60;99.90;;;;;;10548311;28;20200;-81
2021/11/25 05:59:06;;;;;;;23.77;21.23;;;5.60;99.90;;;;;;10532749;28;20671;-81
2021/11/25 06:04:08;;;;;;;25.43;21.23;;;5.60;99.90;;;;;;10532845;28;20206;-81
2021/11/25 06:09:11;;;;;;;25.60;22.07;;;5.60;99.90;;;;;;10529790;28;20216;-81
2021/11/25 06:14:14;;;;;;;24.43;20.53;;;5.60;99.90;;;;;;10543098;28;20698;-81
2021/11/25 06:19:16;;;;;;;24.40;21.57;;;5.60;99.90;;;;;;10535205;28;20910;-82
2021/11/25 06:24:19;;;;;;;27.07;22.33;;;5.70;99.90;;;;;;10524504;28;20287;-81
2021/11/25 06:29:22;;;;;;;26.20;22.77;;;5.70;99.90;;;;;;10542159;28;20226;-84
2021/11/25 06:34:24;;;;;;;24.63;20.77;;;5.80;99.90;;;;;;10521197;28;20246;-84
2021/11/25 06:39:27;;;;;;;26.07;22.57;;;5.80;99.90;;;;;;10532764;28;20243;-84
2021/11/25 06:44:29;;;;;;;25.10;21.00;;;5.80;99.90;;;;;;10550111;28;20230;-83
2021/11/25 06:49:31;;;;;;;27.40;22.60;;;5.80;99.90;;;;;;10528754;28;20292;-84
2021/11/25 06:54:35;;;;;;;25.70;22.60;;;5.90;99.90;;;;;;10531341;28;20207;-84
2021/11/25 06:59:39;;;;;;;26.40;23.00;;;5.90;99.90;;;;;;10533978;28;20699;-84
2021/11/25 07:04:41;;;;;;;24.17;21.40;;;5.90;99.90;;;;;;10521189;28;20631;-83
2021/11/25 07:09:45;;;;;;;27.20;23.77;;;5.80;99.90;;;;;;10518317;28;20722;-83
2021/11/25 07:14:47;;;;;;;24.97;21.17;;;5.80;99.90;;;;;;10533906;28;20215;-83
2021/11/25 07:19:49;;;;;;;23.90;21.00;;;5.80;99.90;;;;;;10535764;28;20651;-83
2021/11/25 07:24:52;;;;;;;24.53;21.83;;;5.80;99.90;;;;;;10533077;28;20279;-84
2021/11/25 07:29:55;;;;;;;26.63;23.70;;;5.90;99.90;;;;;;10540174;28;20281;-84
2021/11/25 07:34:57;;;;;;;23.30;20.63;;;5.90;99.90;;;;;;10529466;28;20204;-84
2021/11/25 07:40:01;;;;;;;23.07;20.57;;;5.90;99.90;;;;;;10526749;28;20231;-83
2021/11/25 07:45:04;;;;;;;24.07;21.40;;;5.90;99.90;;;;;;10567387;28;20624;-84
2021/11/25 07:50:09;;;;;;;24.70;21.57;;;5.90;99.90;;;;;;10528576;28;20230;-82
2021/11/25 07:55:14;;;;;;;25.43;21.13;;;5.90;99.90;;;;;;10530113;28;20217;-86
2021/11/25 08:00:18;;;;;;;25.63;20.20;;;5.90;99.90;;;;;;10529267;28;20776;-85
2021/11/25 08:05:20;;;;;;;28.70;21.23;;;6.00;99.90;;;;;;10506568;28;20212;-84
2021/11/25 08:10:25;;;;;;;24.40;21.30;;;6.10;99.90;;;;;;10530514;28;20228;-85
2021/11/25 08:15:30;;;;;;;26.13;21.77;;;6.10;99.90;;;;;;10512633;28;20219;-85
2021/11/25 08:20:33;;;;;;;25.73;22.20;;;6.20;99.90;;;;;;10533666;28;20310;-84
2021/11/25 08:25:36;;;;;;;27.50;22.23;;;6.20;99.90;;;;;;10552012;28;20210;-83
2021/11/25 08:30:38;;;;;;;28.57;23.20;;;6.10;99.90;;;;;;10551527;28;20695;-84
2021/11/25 08:35:41;;;;;;;25.30;22.30;;;6.20;99.90;;;;;;10557425;28;20226;-84
2021/11/25 08:40:44;;;;;;;29.27;23.93;;;6.10;99.90;;;;;;10557810;28;20254;-84
2021/11/25 08:45:46;;;;;;;28.97;23.23;;;6.10;99.90;;;;;;10542767;28;20208;-84
2021/11/25 08:50:48;;;;;;;27.20;22.70;;;6.10;99.90;;;;;;10544878;28;20232;-84
2021/11/25 08:55:52;;;;;;;26.63;22.23;;;6.10;99.90;;;;;;10541565;28;20218;-84
2021/11/25 09:00:54;;;;;;;28.87;23.83;;;6.20;99.90;;;;;;10539009;28;20226;-83
2021/11/25 09:05:57;;;;;;;26.60;22.10;;;6.20;99.90;;;;;;10557237;28;20570;-85
2021/11/25 09:11:00;;;;;;;31.87;25.27;;;6.20;99.70;;;;;;10550545;28;20503;-84
2021/11/25 09:16:03;;;;;;;28.10;23.30;;;6.20;99.90;;;;;;10533008;28;20222;-84
2021/11/25 09:21:06;;;;;;;30.17;23.00;;;6.20;99.90;;;;;;10532446;28;20223;-84
2021/11/25 09:26:09;;;;;;;29.90;23.13;;;6.10;99.90;;;;;;10567823;28;20196;-85
2021/11/25 09:31:14;;;;;;;32.70;25.57;;;6.00;99.90;;;;;;10556291;28;20239;-84
2021/11/25 09:36:17;;;;;;;29.90;24.13;;;6.10;99.90;;;;;;10549905;28;20206;-84
2021/11/25 09:41:22;;;;;;;26.80;23.63;;;6.10;99.90;;;;;;10538157;28;20232;-84
2021/11/25 09:46:25;;;;;;;28.53;23.97;;;6.10;99.90;;;;;;10538936;28;20210;-85
2021/11/25 09:51:27;;;;;;;29.20;24.87;;;6.10;99.90;;;;;;10544399;28;20280;-84
2021/11/25 09:56:31;;;;;;;28.53;23.90;;;6.10;99.70;;;;;;10549146;28;20200;-84
2021/11/25 10:01:34;;;;;;;29.03;25.10;;;6.10;99.90;;;;;;10536176;28;20220;-85
2021/11/25 10:06:52;;;;;;;31.10;25.13;;;6.10;99.90;;;;;;10530364;28;20279;-86
2021/11/25 10:11:55;;;;;;;29.70;24.73;;;6.20;99.90;;;;;;10507303;28;20248;-86
2021/11/25 10:16:57;;;;;;;27.57;23.07;;;6.30;99.90;;;;;;10513470;28;20211;-85
2021/11/25 10:22:08;;;;;;;27.60;23.27;;;6.30;99.90;;;;;;10512014;28;20240;-85
2021/11/25 10:27:20;;;;;;;30.53;24.23;;;6.40;99.90;;;;;;10514123;28;20219;-86
2021/11/25 10:32:22;;;;;;;26.47;22.63;;;6.40;99.90;;;;;;10512568;28;20220;-84
2021/11/25 10:37:36;;;;;;;29.60;23.77;;;6.40;99.90;;;;;;10509278;28;20539;-85
2021/11/25 10:42:42;;;;;;;28.40;23.90;;;6.40;99.90;;;;;;10510104;28;20322;-85
2021/11/25 10:47:54;;;;;;;27.13;23.03;;;6.50;99.90;;;;;;10536088;28;20253;-84
2021/11/25 10:53:03;;;;;;;29.23;24.70;;;6.50;99.90;;;;;;10515414;28;20220;-84
2021/11/25 10:58:07;;;;;;;28.00;23.20;;;6.60;99.80;;;;;;10523404;28;20223;-85
2021/11/25 11:03:12;;;;;;;28.57;24.37;;;6.60;99.50;;;;;;10510839;28;20249;-84
2021/11/25 11:08:14;;;;;;;29.37;23.33;;;6.70;99.40;;;;;;10526092;28;20226;-83
2021/11/25 11:13:26;;;;;;;29.83;24.97;;;6.70;99.40;;;;;;10518451;22;20220;-79
2021/11/25 11:18:46;;;;;;;29.27;24.80;;;6.60;99.00;;;;;;10446218;28;20717;-79
2021/11/25 11:23:49;;;;;;;27.70;23.43;;;6.60;99.10;;;;;;10469154;28;20303;-78
2021/11/25 11:28:53;;;;;;;26.50;23.30;;;6.60;98.90;;;;;;10451965;28;20208;-79
2021/11/25 11:33:56;;;;;;;28.73;24.10;;;6.60;99.80;;;;;;10450689;28;20225;-79
2021/11/25 11:38:59;;;;;;;30.40;25.03;;;6.60;99.40;;;;;;10452128;28;20293;-79
2021/11/25 11:44:05;;;;;;;28.23;24.30;;;6.70;99.30;;;;;;10434081;28;20255;-79
2021/11/25 11:49:08;;;;;;;28.23;24.10;;;6.60;98.70;;;;;;10436203;28;20236;-79
2021/11/25 11:54:18;;;;;;;28.83;25.07;;;6.60;99.10;;;;;;10451594;28;20701;-79
2021/11/25 11:59:37;;;;;;;31.53;24.87;;;6.70;99.70;;;;;;10451741;28;20193;-79
2021/11/25 12:04:43;;;;;;;28.47;23.73;;;6.80;99.10;;;;;;10448737;28;20223;-80
2021/11/25 12:09:53;;;;;;;29.13;24.17;;;6.90;99.50;;;;;;10450024;28;20201;-79
2021/11/25 12:14:59;;;;;;;28.00;25.00;;;7.00;98.60;;;;;;10433120;28;20237;-78
2021/11/25 12:20:24;;;;;;;31.70;25.77;;;7.10;99.10;;;;;;10461392;28;20259;-79
2021/11/25 12:25:32;;;;;;;26.70;23.10;;;7.10;99.10;;;;;;10444698;28;20245;-79
2021/11/25 12:30:39;;;;;;;28.47;23.13;;;7.10;98.00;;;;;;10448784;28;20220;-79
2021/11/25 12:35:44;;;;;;;29.07;23.37;;;7.00;98.50;;;;;;10433115;28;20231;-79
2021/11/25 12:41:01;;;;;;;22.67;18.43;;;7.00;98.70;;;;;;10458153;28;20239;-79
2021/11/25 12:46:08;;;;;;;28.80;24.37;;;7.00;99.00;;;;;;10457608;28;20227;-79
2021/11/25 12:51:15;;;;;;;31.07;26.00;;;7.10;98.90;;;;;;10456309;28;20197;-79
2021/11/25 12:56:21;;;;;;;27.20;23.30;;;7.10;99.20;;;;;;10455843;28;20221;-79
2021/11/25 13:01:30;;;;;;;29.23;25.33;;;7.10;98.70;;;;;;10456770;28;20221;-80
2021/11/25 13:06:34;;;;;;;28.27;23.20;;;7.20;99.10;;;;;;10456875;28;20228;-80
2021/11/25 13:11:38;;;;;;;27.77;24.10;;;7.20;98.50;;;;;;10465785;28;20209;-79
2021/11/25 13:16:45;;;;;;;26.70;23.43;;;7.30;99.00;;;;;;10465712;28;20267;-79
2021/11/25 13:21:49;;;;;;;27.73;23.13;;;7.30;98.80;;;;;;10466809;28;20248;-80
2021/11/25 13:26:59;;;;;;;27.80;23.60;;;7.30;98.80;;;;;;10469785;28;20818;-79
2021/11/25 13:32:06;;;;;;;28.20;24.20;;;7.20;98.90;;;;;;10454116;28;20205;-80
2021/11/25 13:37:11;;;;;;;27.63;23.57;;;7.20;99.00;;;;;;10471783;28;20217;-79
2021/11/25 13:42:16;;;;;;;30.57;25.17;;;7.20;99.40;;;;;;10472387;28;20247;-79
2021/11/25 13:47:22;;;;;;;31.50;25.40;;;7.20;99.30;;;;;;10475044;28;20718;-78
2021/11/25 13:52:31;;;;;;;28.10;24.87;;;7.10;99.00;;;;;;10475382;28;20201;-79
2021/11/25 13:57:35;;;;;;;31.03;25.63;;;7.10;99.10;;;;;;10477702;28;20295;-79
2021/11/25 14:02:39;;;;;;;27.10;24.23;;;7.00;99.20;;;;;;10462407;28;20217;-79
2021/11/25 14:07:42;;;;;;;30.30;23.97;;;7.00;99.40;;;;;;10458757;28;20208;-78
2021/11/25 14:12:46;;;;;;;30.73;25.97;;;7.00;99.40;;;;;;10458273;28;20279;-78
2021/11/25 14:17:50;;;;;;;27.17;23.70;;;7.00;99.10;;;;;;10442557;28;20209;-79
2021/11/25 14:22:53;;;;;;;26.00;22.40;;;7.00;98.80;;;;;;10461559;28;20711;-78
2021/11/25 14:33:16;;;;;;;27.90;23.70;;;6.90;98.90;;;;;;10462790;28;20247;-79
2021/11/25 14:38:23;;;;;;;27.57;23.00;;;6.90;99.10;;;;;;10463443;28;20235;-78
2021/11/25 14:43:27;;;;;;;27.90;23.87;;;6.90;99.60;;;;;;10460889;28;20276;-79
2021/11/25 14:48:33;;;;;;;29.93;24.17;;;6.90;99.00;;;;;;10460036;28;20273;-79
2021/11/25 14:53:40;;;;;;;25.27;22.50;;;6.80;98.50;;;;;;10461012;28;20220;-79
2021/11/25 14:58:53;;;;;;;27.10;24.10;;;6.80;99.10;;;;;;10462087;28;20668;-79
2021/11/25 15:04:00;;;;;;;26.77;21.77;;;6.70;99.20;;;;;;10453394;28;20275;-78
2021/11/25 15:09:06;;;;;;;26.80;23.70;;;6.70;99.20;;;;;;10459107;28;20322;-79
2021/11/25 15:14:10;;;;;;;27.60;23.80;;;6.70;99.20;;;;;;10460616;28;20316;-79
2021/11/25 15:19:15;;;;;;;29.87;25.37;;;6.70;99.30;;;;;;10459313;28;20216;-79
2021/11/25 15:24:17;;;;;;;28.20;25.13;;;6.70;99.50;;;;;;10457721;28;20768;-78
2021/11/25 15:29:19;;;;;;;28.83;24.80;;;6.70;99.10;;;;;;10458450;28;20328;-79
2021/11/25 15:34:22;;;;;;;28.03;24.90;;;6.70;99.30;;;;;;10457392;28;20584;-78
2021/11/25 15:39:25;;;;;;;26.40;22.60;;;6.70;99.30;;;;;;10454977;28;20205;-79
2021/11/25 15:44:27;;;;;;;29.10;25.53;;;6.60;99.10;;;;;;10457922;28;20227;-79
2021/11/25 15:49:30;;;;;;;27.60;24.10;;;6.60;99.20;;;;;;10459104;28;20205;-78
2021/11/25 15:54:32;;;;;;;28.53;25.13;;;6.60;99.10;;;;;;10458688;28;20224;-79
2021/11/25 15:59:34;;;;;;;30.13;25.57;;;6.60;98.70;;;;;;10457492;28;20201;-78
2021/11/25 16:04:38;;;;;;;29.40;25.30;;;6.60;99.10;;;;;;10455378;28;20226;-78
2021/11/25 16:09:40;;;;;;;29.90;26.53;;;6.60;99.00;;;;;;10438960;28;20232;-78
2021/11/25 16:14:43;;;;;;;27.47;24.30;;;6.50;98.80;;;;;;10461767;28;20236;-79
2021/11/25 16:19:49;;;;;;;28.00;25.00;;;6.50;98.80;;;;;;10462550;28;20201;-78
2021/11/25 16:24:52;;;;;;;29.33;26.23;;;6.50;98.90;;;;;;10463122;28;20229;-78
2021/11/25 16:29:54;;;;;;;28.97;25.90;;;6.50;99.00;;;;;;10461421;28;20205;-78
2021/11/25 16:34:57;;;;;;;28.97;25.83;;;6.40;98.40;;;;;;10464073;28;20705;-78
2021/11/25 16:39:59;;;;;;;30.50;27.20;;;6.30;97.80;;;;;;10445465;28;20305;-78
2021/11/25 16:45:02;;;;;;;31.87;27.97;;;6.30;98.90;;;;;;10481066;28;20232;-79
2021/11/25 16:50:07;;;;;;;29.03;25.30;;;6.30;99.10;;;;;;10461915;28;20259;-78
2021/11/25 16:55:10;;;;;;;29.13;26.03;;;6.30;98.90;;;;;;10463074;28;20680;-78
2021/11/25 17:00:13;;;;;;;31.70;28.30;;;6.30;98.90;;;;;;10460380;28;20209;-79
2021/11/25 17:05:17;;;;;;;30.97;27.80;;;6.30;98.50;;;;;;10459853;28;20264;-78
2021/11/25 17:10:19;;;;;;;32.97;29.47;;;6.30;98.80;;;;;;10462395;28;20767;-79
2021/11/25 17:15:22;;;;;;;30.63;27.27;;;6.30;98.80;;;;;;10536422;22;20223;-83
2021/11/25 17:20:26;;;;;;;30.90;27.60;;;6.20;98.50;;;;;;10554362;28;20212;-83
2021/11/25 17:25:28;;;;;;;31.90;28.63;;;6.30;98.90;;;;;;10558001;28;20219;-81
2021/11/25 17:30:30;;;;;;;31.00;27.80;;;6.20;99.10;;;;;;10533948;28;20311;-83
2021/11/25 17:35:36;;;;;;;30.53;27.50;;;6.20;98.30;;;;;;10545176;28;20215;-82
2021/11/25 17:40:39;;;;;;;31.07;27.97;;;6.20;98.80;;;;;;10527650;28;20249;-82
2021/11/25 17:45:44;;;;;;;31.83;28.30;;;6.20;98.80;;;;;;10547242;28;20253;-84
2021/11/25 17:50:48;;;;;;;30.80;27.60;;;6.20;98.70;;;;;;10528445;28;20199;-83
2021/11/25 17:55:50;;;;;;;33.37;29.83;;;6.20;98.60;;;;;;10547410;28;20216;-84
2021/11/25 18:00:54;;;;;;;35.33;30.20;;;6.20;98.70;;;;;;10545016;28;20577;-84
2021/11/25 18:05:59;;;;;;;33.70;30.27;;;6.20;98.60;;;;;;10542121;28;20230;-82
2021/11/25 18:11:01;;;;;;;33.37;29.73;;;6.20;98.90;;;;;;10516804;28;20291;-82
2021/11/25 18:16:04;;;;;;;31.83;28.47;;;6.20;98.90;;;;;;10542519;28;20307;-84
2021/11/25 18:21:08;;;;;;;32.30;29.10;;;6.20;98.60;;;;;;10525873;28;20706;-84
2021/11/25 18:26:13;;;;;;;35.07;31.37;;;6.10;98.80;;;;;;10545904;28;20699;-83
2021/11/25 18:31:16;;;;;;;34.57;30.60;;;6.10;98.90;;;;;;10526383;28;20295;-82
2021/11/25 18:36:21;;;;;;;34.93;31.20;;;6.10;98.60;;;;;;10544529;28;20539;-83
2021/11/25 18:41:27;;;;;;;37.00;33.07;;;6.10;98.80;;;;;;10561284;28;20271;-84
2021/11/25 18:46:30;;;;;;;34.57;30.93;;;6.10;98.90;;;;;;10512851;28;20722;-84
2021/11/25 18:51:34;;;;;;;38.40;34.10;;;6.10;98.90;;;;;;10515321;28;20200;-84
2021/11/25 18:56:36;;;;;;;37.77;32.93;;;6.00;98.60;;;;;;10516514;28;20228;-83
2021/11/25 19:01:39;;;;;;;37.60;32.33;;;6.00;98.90;;;;;;10535743;28;20291;-84
2021/11/25 19:06:44;;;;;;;38.23;34.20;;;6.00;98.80;;;;;;10560798;28;20216;-82
2021/11/25 19:11:46;;;;;;;39.37;35.07;;;6.00;98.90;;;;;;10529831;28;20262;-84
2021/11/25 19:16:50;;;;;;;40.63;36.20;;;6.00;99.00;;;;;;10541501;28;20216;-83
2021/11/25 19:21:57;;;;;;;38.53;34.43;;;6.00;99.20;;;;;;10520789;28;20208;-81
2021/11/25 19:27:00;;;;;;;38.23;34.13;;;6.00;98.90;;;;;;10535352;28;20273;-85
2021/11/25 19:32:03;;;;;;;37.90;33.53;;;6.00;98.80;;;;;;10521094;28;20204;-84
2021/11/25 19:37:10;;;;;;;37.17;33.10;;;5.90;99.00;;;;;;10525284;28;20274;-84
2021/11/25 19:42:12;;;;;;;38.13;34.07;;;5.90;99.00;;;;;;10530953;28;20212;-83
2021/11/25 19:47:14;;;;;;;37.20;33.10;;;5.90;99.00;;;;;;10546444;28;20259;-83
2021/11/25 19:52:41;;;;;;;33.20;29.57;;;5.90;98.80;;;;;;10501763;28;20252;-84
2021/11/25 19:57:46;;;;;;;37.90;31.90;;;6.00;98.00;;;;;;10496153;28;20219;-82
2021/11/25 20:09:26;;;;;;;41.20;33.23;;;5.90;99.00;;;;;;10411325;28;20267;-82
2021/11/25 20:14:37;;;;;;;39.13;33.63;;;5.90;98.70;;;;;;10559065;22;20226;-81
2021/11/25 20:19:39;;;;;;;37.80;33.23;;;5.90;98.30;;;;;;10461092;28;20207;-83
2021/11/25 20:24:42;;;;;;;40.50;34.13;;;5.90;98.60;;;;;;10483316;28;20220;-81
2021/11/25 20:30:04;;;;;;;46.70;36.43;;;5.80;98.60;;;;;;10527671;22;20323;-82
2021/11/25 20:35:22;;;;;;;41.00;33.83;;;5.80;98.70;;;;;;10476311;28;20205;-82
2021/11/25 20:40:33;;;;;;;43.87;36.30;;;5.80;98.80;;;;;;10483011;28;20231;-81
2021/11/25 20:46:13;;;;;;;44.20;36.57;;;5.80;98.80;;;;;;10551439;28;20215;-80
2021/11/25 20:51:22;;;;;;;44.77;36.40;;;5.80;98.80;;;;;;10482161;28;20231;-81
2021/11/25 20:56:35;;;;;;;42.07;34.57;;;5.90;98.90;;;;;;10482652;28;20572;-80
2021/11/25 21:01:57;;;;;;;41.50;35.17;;;5.90;98.80;;;;;;10474237;28;20231;-80
2021/11/25 21:07:00;;;;;;;45.87;37.77;;;5.80;98.30;;;;;;10516338;28;20207;-79
2021/11/25 21:12:04;;;;;;;46.77;38.37;;;5.80;99.00;;;;;;10506592;28;20599;-79
2021/11/25 21:17:06;;;;;;;46.57;36.70;;;5.80;99.20;;;;;;10505214;28;20295;-80
2021/11/25 21:22:09;;;;;;;46.50;36.47;;;5.80;98.50;;;;;;10493903;28;20231;-81
2021/11/25 21:27:13;;;;;;;44.23;35.93;;;5.80;98.80;;;;;;10514664;28;20724;-81
2021/11/25 21:32:16;;;;;;;47.90;37.27;;;5.80;99.00;;;;;;10503205;28;20611;-80
2021/11/25 21:37:19;;;;;;;49.20;38.23;;;5.80;99.30;;;;;;10511032;28;20197;-81
2021/11/25 21:42:22;;;;;;;46.23;37.43;;;5.80;99.10;;;;;;10516328;28;20230;-81
2021/11/25 21:47:25;;;;;;;54.13;38.90;;;5.80;99.10;;;;;;10479380;28;20624;-82
2021/11/25 21:52:27;;;;;;;48.07;36.60;;;5.80;99.00;;;;;;10503292;28;20691;-82
2021/11/25 21:57:30;;;;;;;44.90;36.90;;;5.80;99.10;;;;;;10468880;28;20292;-83
2021/11/25 22:02:33;;;;;;;47.73;37.57;;;5.80;99.30;;;;;;10488279;28;20684;-82
2021/11/25 22:07:35;;;;;;;46.73;37.80;;;5.80;99.20;;;;;;10473266;28;20205;-82
2021/11/25 22:12:40;;;;;;;46.50;37.87;;;5.90;99.20;;;;;;10492618;28;20269;-82
2021/11/25 22:17:43;;;;;;;47.77;38.87;;;5.80;99.20;;;;;;10503148;28;20246;-82
2021/11/25 22:28:06;;;;;;;51.97;38.13;;;5.80;99.00;;;;;;10481240;28;20193;-82
2021/11/25 22:33:08;;;;;;;50.33;39.60;;;5.80;98.60;;;;;;10467633;28;20255;-81
2021/11/25 22:38:11;;;;;;;49.90;38.63;;;5.70;99.20;;;;;;10465012;28;20250;-79
2021/11/25 22:43:14;;;;;;;47.70;39.00;;;5.80;99.00;;;;;;10491550;28;20260;-80
2021/11/25 22:48:16;;;;;;;50.43;41.03;;;5.80;99.40;;;;;;10461654;28;20605;-81
2021/11/25 22:53:18;;;;;;;45.30;36.83;;;5.80;99.00;;;;;;10460915;28;20268;-82
2021/11/25 22:58:22;;;;;;;53.43;40.90;;;5.80;99.30;;;;;;10481808;28;20211;-80
2021/11/25 23:03:24;;;;;;;47.87;36.87;;;5.80;99.40;;;;;;10483553;28;20580;-80
2021/11/25 23:08:26;;;;;;;55.10;40.70;;;5.80;98.50;;;;;;10483713;28;20590;-80
2021/11/25 23:13:36;;;;;;;54.57;39.07;;;5.80;99.30;;;;;;10503984;28;20221;-82
2021/11/25 23:18:41;;;;;;;54.17;40.47;;;5.80;99.40;;;;;;10498914;28;20270;-82
2021/11/25 23:23:46;;;;;;;53.50;41.80;;;5.80;99.20;;;;;;10465136;28;20239;-83
2021/11/25 23:28:49;;;;;;;53.90;39.60;;;5.80;99.30;;;;;;10459759;28;20208;-80
2021/11/25 23:33:51;;;;;;;56.80;42.40;;;5.80;99.20;;;;;;10498421;28;20311;-81
2021/11/25 23:38:54;;;;;;;54.67;42.27;;;5.80;99.50;;;;;;10474918;28;20197;-82
2021/11/25 23:43:57;;;;;;;52.10;40.00;;;5.80;99.50;;;;;;10506734;28;20254;-81
2021/11/25 23:49:02;;;;;;;59.63;42.40;;;5.80;99.30;;;;;;10499491;28;20222;-81
2021/11/25 23:54:05;;;;;;;57.23;41.47;;;5.80;99.40;;;;;;10503991;28;20196;-80
2021/11/25 23:59:09;;;;;;;50.93;39.93;;;5.90;99.30;;;;;;10510029;28;20339;-82
